Terminal Aerodrome Forecast
Issued by NWS

Home | Current Version | Previous Version | Text Only | Print | Product List | Glossary On
Versions: 1 2 3 4 5 6 7 8 9 10 11 12 13 14 15
000
FTUS46 KOTX 161809 AAA
TAFPUW
TAF AMD
KPUW 161809Z 1618/1718 24008KT P6SM -SHRA BKN025 BKN035 OVC040
     FM162100 25011KT P6SM VCSH BKN040 OVC060
     FM170100 21007KT P6SM BKN050 OVC100
     FM170500 16009KT P6SM BKN060 OVC100
     FM171700 14009KT P6SM VCSH BKN040 OVC050=

USA.gov is the U.S. government's official web portal to all federal, state and local government web resources and services.